EKRK/RKE METAR and TAF weather

Enter ICAO airport designator
Station Type Date Time Source
EKRK METAR 2021/05/11 16:20 UTC NOAA

EKRK 111620Z AUTO 35011KT 9999 BKN110/// 13/11 Q1007


Station Type Date Time Source
EKRK Decoded METAR 2021/05/11 16:20 UTC NOAA

Koebenhavn / Roskilde, Denmark (EKRK) 55-35N 012-08E 44M
May 11, 2021 - 12:20 PM EDT / 2021.05.11 1620 UTC
Wind: from the N (350 degrees) at 13 MPH (11 KT):0
Visibility: greater than 7 mile(s):0
Sky conditions: mostly cloudy
Temperature: 55 F (13 C)
Dew Point: 51 F (11 C)
Relative Humidity: 87%
Pressure (altimeter): 29.74 in. Hg (1007 hPa)
ob: EKRK 111620Z AUTO 35011KT 9999 BKN110/// 13/11 Q1007
cycle: 16

Station Type Date Time Source
EKRK TAF 2020/10/13 06:33 UTC NOAA

TAF EKRK 130526Z 1306/1415 09004KT 0200 FG VV001
TEMPO 1306/1307 6000 NSW NSC
BECMG 1307/1309 9999 NSW FEW020

Example: see airport list